createdAt,value
2022-11-29T00:01:17.803Z,0.86
2022-11-29T00:03:44.834Z,0.78
2022-11-29T00:06:14.340Z,0.83
2022-11-29T00:08:42.065Z,0.67
2022-11-29T00:11:11.668Z,0.87
2022-11-29T00:13:38.483Z,0.84
2022-11-29T00:16:07.801Z,0.79
2022-11-29T00:18:34.750Z,0.80
2022-11-29T00:21:07.965Z,0.84
2022-11-29T00:23:35.255Z,0.76
2022-11-29T00:26:06.432Z,0.89
2022-11-29T00:28:33.906Z,0.78
2022-11-29T00:31:00.932Z,0.90
2022-11-29T00:33:27.660Z,0.71
2022-11-29T00:35:54.348Z,0.77
2022-11-29T00:38:21.092Z,0.68
2022-11-29T00:40:52.144Z,0.77
2022-11-29T00:43:18.832Z,0.82
2022-11-29T00:45:45.567Z,0.75
2022-11-29T00:48:12.274Z,0.68
2022-11-29T00:50:38.991Z,0.63
2022-11-29T00:53:05.634Z,0.72
2022-11-29T00:55:32.299Z,0.80
2022-11-29T00:57:58.875Z,0.75
2022-11-29T01:00:25.495Z,0.86
2022-11-29T01:02:52.124Z,0.76
2022-11-29T01:05:18.875Z,0.81
2022-11-29T01:07:45.724Z,0.76
2022-11-29T01:10:12.503Z,0.80
2022-11-29T01:12:39.984Z,0.72
2022-11-29T01:15:08.252Z,0.67
2022-11-29T01:17:35.974Z,0.57
2022-11-29T01:20:03.532Z,0.61
2022-11-29T01:22:30.322Z,0.64
2022-11-29T01:24:57.009Z,0.61
2022-11-29T01:27:23.686Z,0.51
2022-11-29T01:29:50.358Z,0.55
2022-11-29T01:32:17.007Z,0.45
2022-11-29T01:34:43.833Z,0.45
2022-11-29T01:37:10.687Z,0.42
2022-11-29T01:39:37.553Z,0.52
2022-11-29T01:42:04.610Z,0.56
2022-11-29T01:44:31.224Z,0.50
2022-11-29T01:46:58.348Z,0.48
2022-11-29T01:49:35.053Z,0.50
2022-11-29T01:52:07.054Z,0.48
2022-11-29T01:54:39.578Z,0.51
2022-11-29T01:57:07.929Z,0.50
2022-11-29T01:59:37.348Z,0.41
2022-11-29T02:02:16.062Z,0.45
2022-11-29T02:04:44.159Z,0.44
2022-11-29T02:07:11.144Z,0.46
2022-11-29T02:09:37.834Z,0.47
2022-11-29T02:12:25.745Z,0.43
2022-11-29T02:15:26.176Z,0.46
2022-11-29T02:18:05.088Z,0.44
2022-11-29T02:21:09.370Z,0.46
2022-11-29T02:23:39.555Z,0.39
2022-11-29T02:26:32.172Z,0.50
2022-11-29T02:29:20.303Z,0.52
2022-11-29T02:31:58.941Z,0.56
2022-11-29T02:34:34.573Z,0.56
2022-11-29T02:37:16.315Z,0.44
2022-11-29T02:40:00.896Z,0.36
2022-11-29T02:42:54.112Z,0.27
2022-11-29T02:45:43.962Z,0.31
2022-11-29T02:48:29.102Z,0.30
2022-11-29T02:51:22.169Z,0.32
2022-11-29T02:53:59.341Z,0.34
2022-11-29T02:56:50.757Z,0.31
2022-11-29T02:59:27.377Z,0.22
2022-11-29T03:02:26.907Z,0.20
2022-11-29T03:05:08.383Z,0.19
2022-11-29T03:07:53.666Z,0.09
2022-11-29T03:10:29.293Z,0.03
2022-11-29T03:12:57.184Z,-0.03
2022-11-29T03:15:34.069Z,0.09
2022-11-29T03:18:27.137Z,0.08
2022-11-29T03:21:20.611Z,0.06
2022-11-29T03:23:54.861Z,0.11
2022-11-29T03:26:27.062Z,0.09
2022-11-29T03:29:08.152Z,-0.12
2022-11-29T03:31:37.772Z,0.09
2022-11-29T03:34:57.348Z,0.15
2022-11-29T03:37:29.937Z,0.00
2022-11-29T03:40:04.499Z,0.02
2022-11-29T03:42:57.270Z,0.06
2022-11-29T03:45:39.438Z,0.02
2022-11-29T03:48:17.432Z,-0.06
2022-11-29T03:50:55.126Z,-0.02
2022-11-29T03:53:39.661Z,0.02
2022-11-29T03:56:42.346Z,-0.01
2022-11-29T03:59:29.587Z,0.06
2022-11-29T04:02:27.274Z,0.12
2022-11-29T04:05:09.058Z,0.17
2022-11-29T04:07:44.848Z,0.17
2022-11-29T04:10:23.498Z,0.27
2022-11-29T04:13:08.554Z,0.26
2022-11-29T04:15:53.676Z,0.14
2022-11-29T04:18:36.913Z,0.13
2022-11-29T04:21:28.182Z,-0.07
2022-11-29T04:24:13.203Z,-0.04
2022-11-29T04:26:58.132Z,0.07
2022-11-29T04:29:54.481Z,-0.21
2022-11-29T04:32:39.779Z,0.02
2022-11-29T04:35:24.782Z,0.00
2022-11-29T04:38:07.204Z,-0.01
2022-11-29T04:40:51.303Z,-0.08
2022-11-29T04:44:00.202Z,-0.11
2022-11-29T04:46:29.985Z,-0.15
2022-11-29T04:49:26.583Z,-0.15
2022-11-29T04:52:29.919Z,-0.18
2022-11-29T04:55:31.089Z,-0.17
2022-11-29T04:58:00.405Z,-0.21
2022-11-29T05:00:28.907Z,-0.26
2022-11-29T05:03:20.462Z,-0.22
2022-11-29T05:06:02.046Z,-0.32
2022-11-29T05:08:53.123Z,-0.28
2022-11-29T05:11:54.001Z,-0.14
2022-11-29T05:14:27.337Z,-0.16
2022-11-29T05:17:18.793Z,-0.26
2022-11-29T05:20:04.450Z,-0.17
2022-11-29T05:22:48.276Z,-0.25
2022-11-29T05:25:31.915Z,-0.20
2022-11-29T05:28:26.398Z,-0.29
2022-11-29T05:31:26.351Z,-0.23
2022-11-29T05:34:08.441Z,-0.24
2022-11-29T05:36:40.363Z,-0.27
2022-11-29T05:39:33.958Z,-0.20
2022-11-29T05:42:06.554Z,-0.12
2022-11-29T05:44:46.204Z,-0.05
2022-11-29T05:47:18.927Z,-0.15
2022-11-29T05:50:09.392Z,-0.33
2022-11-29T05:52:42.337Z,-0.11
2022-11-29T05:55:15.335Z,-0.13
2022-11-29T05:57:57.029Z,-0.09
2022-11-29T06:00:23.985Z,-0.21
2022-11-29T06:03:03.796Z,-0.28
2022-11-29T06:05:46.970Z,-0.31
2022-11-29T06:08:30.290Z,-0.29
2022-11-29T06:11:14.424Z,-0.21
2022-11-29T06:14:05.634Z,-0.09
2022-11-29T06:17:02.121Z,-0.07
2022-11-29T06:19:37.848Z,-0.09
2022-11-29T06:22:31.876Z,-0.24
2022-11-29T06:25:10.754Z,-0.14
2022-11-29T06:28:06.718Z,-0.17
2022-11-29T06:31:01.266Z,-0.18
2022-11-29T06:33:30.757Z,-0.19
2022-11-29T06:36:12.226Z,-0.14
2022-11-29T06:38:39.090Z,-0.20
2022-11-29T06:41:06.250Z,-0.27
2022-11-29T06:43:33.808Z,-0.18
2022-11-29T06:46:13.711Z,-0.10
2022-11-29T06:48:50.009Z,-0.13
2022-11-29T06:51:21.668Z,-0.05
2022-11-29T06:54:08.601Z,-0.25
2022-11-29T06:56:56.788Z,-0.15
2022-11-29T06:59:38.267Z,-0.10
2022-11-29T13:48:51.868Z,-0.81
2022-11-29T13:51:37.608Z,-0.76
2022-11-29T13:54:13.038Z,-0.86
2022-11-29T13:56:46.700Z,-0.86
2022-11-29T13:59:34.478Z,-0.82
2022-11-29T14:02:01.315Z,-0.86
2022-11-29T14:04:45.628Z,-0.94
2022-11-29T14:07:19.685Z,-0.95
2022-11-29T14:10:08.515Z,-0.80
2022-11-29T14:13:04.980Z,-0.79
2022-11-29T14:15:33.291Z,-0.84
2022-11-29T14:18:02.700Z,-0.81
2022-11-29T14:20:29.383Z,-0.78
2022-11-29T14:23:05.317Z,-0.79
2022-11-29T14:25:54.184Z,-0.78
2022-11-29T14:28:20.807Z,-0.75
2022-11-29T14:30:48.613Z,-0.88
2022-11-29T14:33:40.065Z,-0.88
2022-11-29T14:36:15.601Z,-0.86
2022-11-29T14:39:05.889Z,-0.88
2022-11-29T14:41:50.923Z,-0.92
2022-11-29T14:44:24.320Z,-0.90
2022-11-29T14:47:06.200Z,-0.85
2022-11-29T14:49:40.093Z,-0.81
2022-11-29T14:52:27.499Z,-0.75
2022-11-29T14:55:02.054Z,-0.78
2022-11-29T14:58:01.557Z,-0.81
2022-11-29T15:00:30.751Z,-0.81
2022-11-29T15:03:13.068Z,-0.78
2022-11-29T15:05:45.267Z,-0.82
2022-11-29T15:08:35.917Z,-0.85
2022-11-29T15:11:08.487Z,-0.82
2022-11-29T15:13:37.646Z,-0.75
2022-11-29T15:16:23.337Z,-0.70
2022-11-29T15:19:02.303Z,-0.74
2022-11-29T15:21:44.028Z,-0.75
2022-11-29T15:24:13.626Z,-0.83
2022-11-29T15:26:57.970Z,-0.95
2022-11-29T15:29:25.254Z,-0.89
2022-11-29T15:31:57.081Z,-0.95
2022-11-29T15:34:31.952Z,-0.97
2022-11-29T15:36:59.803Z,-0.98
2022-11-29T15:39:37.222Z,-0.96
2022-11-29T15:42:13.655Z,-1.01
2022-11-29T15:44:48.144Z,-1.01
2022-11-29T15:47:25.764Z,-0.99
2022-11-29T15:49:53.939Z,-0.97
2022-11-29T15:52:28.219Z,-0.96
2022-11-29T18:52:59.369Z,-1.07
2022-11-29T18:55:27.706Z,-1.13
2022-11-29T18:57:55.202Z,-1.14
2022-11-29T19:00:22.142Z,-1.11
2022-11-29T19:02:48.928Z,-1.04
2022-11-29T19:05:15.849Z,-1.00
2022-11-29T19:07:42.569Z,-1.12
2022-11-29T19:10:09.601Z,-1.11
2022-11-29T19:12:36.871Z,-1.03
2022-11-29T19:15:04.150Z,-1.03
2022-11-29T19:17:30.949Z,-1.09
2022-11-29T19:19:58.531Z,-1.15
2022-11-29T19:22:27.123Z,-1.25
2022-11-29T19:24:55.650Z,-1.21
2022-11-29T19:27:22.686Z,-1.24
2022-11-29T19:29:51.149Z,-1.25
2022-11-29T19:32:17.891Z,-1.16
2022-11-29T19:34:44.596Z,-1.21
2022-11-29T19:37:11.278Z,-1.27
2022-11-29T19:39:38.991Z,-1.26
2022-11-29T19:42:05.842Z,-1.33
2022-11-29T19:44:48.274Z,-1.24
2022-11-29T19:47:19.248Z,-1.27
2022-11-29T19:49:46.952Z,-1.21
2022-11-29T19:52:13.694Z,-1.27
2022-11-29T19:54:40.358Z,-1.20
2022-11-29T19:57:07.028Z,-1.26
2022-11-29T19:59:33.970Z,-1.30
2022-11-29T20:02:00.658Z,-1.30
2022-11-29T20:04:27.377Z,-1.24
2022-11-29T20:06:54.845Z,-1.22
2022-11-29T20:09:24.697Z,-1.18
2022-11-29T20:11:51.306Z,-1.32
2022-11-29T20:14:17.894Z,-1.34
2022-11-29T20:16:44.820Z,-1.39
2022-11-29T20:19:13.223Z,-1.30
2022-11-29T20:21:45.446Z,-1.30
2022-11-29T20:24:13.113Z,-1.35
2022-11-29T20:26:43.346Z,-1.33
2022-11-29T20:29:10.637Z,-1.33
2022-11-29T20:31:41.121Z,-1.28
2022-11-29T20:34:14.252Z,-1.37
2022-11-29T20:37:10.550Z,-1.28
2022-11-29T20:39:50.698Z,-1.24
2022-11-29T20:42:29.649Z,-1.30
2022-11-29T20:45:00.968Z,-1.42
2022-11-29T20:47:52.161Z,-1.47
2022-11-29T20:50:23.563Z,-1.57
2022-11-29T20:52:52.323Z,-1.47
2022-11-29T20:55:19.060Z,-1.56
2022-11-29T20:57:45.959Z,-1.55
2022-11-29T21:00:13.511Z,-1.57
2022-11-29T21:02:40.153Z,-1.57
2022-11-29T21:05:07.297Z,-1.58
2022-11-29T21:07:34.413Z,-1.51
2022-11-29T21:10:01.854Z,-1.52
2022-11-29T21:12:30.247Z,-1.50
2022-11-29T21:14:57.884Z,-1.51
2022-11-29T21:17:28.745Z,-1.58
2022-11-29T21:19:59.976Z,-1.62
2022-11-29T21:22:38.709Z,-1.62
2022-11-29T21:25:30.348Z,-1.71
2022-11-29T21:27:57.376Z,-1.72
2022-11-29T21:30:25.034Z,-1.70
2022-11-29T21:32:52.256Z,-1.70
2022-11-29T21:35:18.982Z,-1.66
2022-11-29T21:37:46.279Z,-1.73
2022-11-29T21:40:14.024Z,-1.65
2022-11-29T21:42:40.756Z,-1.68
2022-11-29T21:45:13.423Z,-1.62
2022-11-29T21:47:42.245Z,-1.61
2022-11-29T21:50:09.348Z,-1.65
2022-11-29T21:52:36.107Z,-1.63
2022-11-29T21:55:02.979Z,-1.54
2022-11-29T21:57:29.643Z,-1.54
2022-11-29T21:59:56.288Z,-1.54
2022-11-29T22:02:23.160Z,-1.61
2022-11-29T22:04:53.277Z,-1.50
2022-11-29T22:07:19.955Z,-1.50
2022-11-29T22:09:46.628Z,-1.43
2022-11-29T22:12:33.013Z,-1.39
2022-11-29T22:15:00.298Z,-1.50
2022-11-29T22:17:26.904Z,-1.45
2022-11-29T22:19:53.510Z,-1.43
2022-11-29T22:22:20.128Z,-1.31
2022-11-29T22:24:47.001Z,-1.40
2022-11-29T22:27:13.920Z,-1.57
2022-11-29T22:29:40.643Z,-1.42
2022-11-29T22:32:07.320Z,-1.50
2022-11-29T22:34:34.076Z,-1.35
2022-11-29T22:37:00.715Z,-1.45
2022-11-29T22:39:27.356Z,-1.36
2022-11-29T22:41:55.221Z,-1.27
2022-11-29T22:44:23.171Z,-1.26
2022-11-29T22:46:50.092Z,-1.38
2022-11-29T22:49:16.902Z,-1.29
2022-11-29T22:51:43.798Z,-1.23
2022-11-29T22:54:11.921Z,-1.43
2022-11-29T22:56:40.935Z,-1.34
2022-11-29T22:59:07.949Z,-1.33
2022-11-29T23:01:36.220Z,-1.40
2022-11-29T23:04:06.069Z,-1.39
2022-11-29T23:06:38.234Z,-1.38
2022-11-29T23:09:16.044Z,-1.40
2022-11-29T23:11:46.372Z,-1.40
2022-11-29T23:14:13.359Z,-1.40
2022-11-29T23:16:40.652Z,-1.37
2022-11-29T23:19:07.344Z,-1.38
2022-11-29T23:21:38.823Z,-1.40
2022-11-29T23:24:06.206Z,-1.36
2022-11-29T23:26:40.058Z,-1.40
2022-11-29T23:29:08.782Z,-1.39
2022-11-29T23:31:35.570Z,-1.42
2022-11-29T23:34:02.986Z,-1.33
2022-11-29T23:36:29.605Z,-1.45
2022-11-29T23:38:56.196Z,-1.27
2022-11-29T23:41:23.043Z,-1.36
2022-11-29T23:43:49.729Z,-1.38
2022-11-29T23:46:19.480Z,-1.45
2022-11-29T23:48:46.255Z,-1.33
2022-11-29T23:51:13.531Z,-1.29
2022-11-29T23:53:41.048Z,-1.33
2022-11-29T23:56:10.616Z,-1.41
2022-11-29T23:58:38.140Z,-1.50
